sensor_id;sensor_type;location;lat;lon;timestamp;P1;durP1;ratioP1;P2;durP2;ratioP2
14100;SDS011;7127;49.372;8.166;2023-06-14T00:00:41;2.13;;;1.90;;
14100;SDS011;7127;49.372;8.166;2023-06-14T00:03:09;2.07;;;1.90;;
14100;SDS011;7127;49.372;8.166;2023-06-14T00:05:36;1.70;;;1.60;;
14100;SDS011;7127;49.372;8.166;2023-06-14T00:08:08;1.70;;;1.60;;
14100;SDS011;7127;49.372;8.166;2023-06-14T00:10:35;2.73;;;1.97;;
14100;SDS011;7127;49.372;8.166;2023-06-14T00:13:07;2.10;;;1.80;;
14100;SDS011;7127;49.372;8.166;2023-06-14T00:15:34;2.13;;;1.90;;
14100;SDS011;7127;49.372;8.166;2023-06-14T00:18:02;2.73;;;1.70;;
14100;SDS011;7127;49.372;8.166;2023-06-14T00:20:29;2.10;;;1.90;;
14100;SDS011;7127;49.372;8.166;2023-06-14T00:22:57;2.03;;;1.83;;
14100;SDS011;7127;49.372;8.166;2023-06-14T00:25:25;1.93;;;1.80;;
14100;SDS011;7127;49.372;8.166;2023-06-14T00:27:52;2.17;;;1.97;;
14100;SDS011;7127;49.372;8.166;2023-06-14T00:30:20;2.83;;;2.10;;
14100;SDS011;7127;49.372;8.166;2023-06-14T00:32:47;2.43;;;2.00;;
14100;SDS011;7127;49.372;8.166;2023-06-14T00:35:14;1.63;;;1.53;;
14100;SDS011;7127;49.372;8.166;2023-06-14T00:37:41;2.20;;;2.00;;
14100;SDS011;7127;49.372;8.166;2023-06-14T00:40:09;2.00;;;1.80;;
14100;SDS011;7127;49.372;8.166;2023-06-14T00:42:36;2.07;;;1.87;;
14100;SDS011;7127;49.372;8.166;2023-06-14T00:45:04;1.83;;;1.70;;
14100;SDS011;7127;49.372;8.166;2023-06-14T00:47:32;1.97;;;1.83;;
14100;SDS011;7127;49.372;8.166;2023-06-14T00:50:00;7.13;;;2.07;;
14100;SDS011;7127;49.372;8.166;2023-06-14T00:52:28;3.33;;;1.80;;
14100;SDS011;7127;49.372;8.166;2023-06-14T00:54:57;2.07;;;1.93;;
14100;SDS011;7127;49.372;8.166;2023-06-14T00:57:24;2.93;;;1.70;;
14100;SDS011;7127;49.372;8.166;2023-06-14T00:59:51;2.87;;;1.80;;
14100;SDS011;7127;49.372;8.166;2023-06-14T01:02:18;1.70;;;1.60;;
14100;SDS011;7127;49.372;8.166;2023-06-14T01:04:46;1.73;;;1.63;;
14100;SDS011;7127;49.372;8.166;2023-06-14T01:07:16;2.47;;;1.80;;
14100;SDS011;7127;49.372;8.166;2023-06-14T01:09:53;2.37;;;1.90;;
14100;SDS011;7127;49.372;8.166;2023-06-14T01:12:29;2.30;;;1.53;;
14100;SDS011;7127;49.372;8.166;2023-06-14T01:15:02;3.03;;;2.20;;
14100;SDS011;7127;49.372;8.166;2023-06-14T01:17:30;2.23;;;1.80;;
14100;SDS011;7127;49.372;8.166;2023-06-14T01:19:59;1.93;;;1.70;;
14100;SDS011;7127;49.372;8.166;2023-06-14T01:22:28;2.00;;;1.80;;
14100;SDS011;7127;49.372;8.166;2023-06-14T01:24:57;2.03;;;1.83;;
14100;SDS011;7127;49.372;8.166;2023-06-14T01:27:24;1.80;;;1.63;;
14100;SDS011;7127;49.372;8.166;2023-06-14T01:29:54;1.70;;;1.57;;
14100;SDS011;7127;49.372;8.166;2023-06-14T01:32:22;1.63;;;1.53;;
14100;SDS011;7127;49.372;8.166;2023-06-14T01:34:50;2.13;;;1.93;;
14100;SDS011;7127;49.372;8.166;2023-06-14T01:37:17;1.90;;;1.80;;
14100;SDS011;7127;49.372;8.166;2023-06-14T01:39:45;2.00;;;1.90;;
14100;SDS011;7127;49.372;8.166;2023-06-14T01:42:16;2.00;;;1.80;;
14100;SDS011;7127;49.372;8.166;2023-06-14T01:44:44;2.23;;;2.00;;
14100;SDS011;7127;49.372;8.166;2023-06-14T01:47:13;2.97;;;2.27;;
14100;SDS011;7127;49.372;8.166;2023-06-14T01:49:41;2.20;;;2.00;;
14100;SDS011;7127;49.372;8.166;2023-06-14T01:52:07;2.33;;;1.83;;
14100;SDS011;7127;49.372;8.166;2023-06-14T01:54:35;2.07;;;1.87;;
14100;SDS011;7127;49.372;8.166;2023-06-14T01:57:06;2.27;;;1.90;;
14100;SDS011;7127;49.372;8.166;2023-06-14T01:59:35;3.20;;;2.07;;
14100;SDS011;7127;49.372;8.166;2023-06-14T02:02:02;2.47;;;2.27;;
14100;SDS011;7127;49.372;8.166;2023-06-14T02:04:30;1.87;;;1.77;;
14100;SDS011;7127;49.372;8.166;2023-06-14T02:06:56;2.57;;;2.00;;
14100;SDS011;7127;49.372;8.166;2023-06-14T02:09:23;3.20;;;2.07;;
14100;SDS011;7127;49.372;8.166;2023-06-14T02:11:50;3.37;;;1.87;;
14100;SDS011;7127;49.372;8.166;2023-06-14T02:14:17;3.10;;;2.43;;
14100;SDS011;7127;49.372;8.166;2023-06-14T02:16:45;2.20;;;2.00;;
14100;SDS011;7127;49.372;8.166;2023-06-14T02:19:14;2.53;;;2.20;;
14100;SDS011;7127;49.372;8.166;2023-06-14T02:21:40;2.20;;;2.00;;
14100;SDS011;7127;49.372;8.166;2023-06-14T02:24:07;3.03;;;2.17;;
14100;SDS011;7127;49.372;8.166;2023-06-14T02:26:34;5.73;;;2.00;;
14100;SDS011;7127;49.372;8.166;2023-06-14T02:29:02;2.87;;;2.47;;
14100;SDS011;7127;49.372;8.166;2023-06-14T02:31:30;3.20;;;1.90;;
14100;SDS011;7127;49.372;8.166;2023-06-14T02:33:58;2.80;;;2.40;;
14100;SDS011;7127;49.372;8.166;2023-06-14T02:36:25;2.33;;;2.13;;
14100;SDS011;7127;49.372;8.166;2023-06-14T02:38:52;2.43;;;2.23;;
14100;SDS011;7127;49.372;8.166;2023-06-14T02:41:19;2.50;;;2.30;;
14100;SDS011;7127;49.372;8.166;2023-06-14T02:43:46;2.30;;;2.10;;
14100;SDS011;7127;49.372;8.166;2023-06-14T02:46:13;2.03;;;1.83;;
14100;SDS011;7127;49.372;8.166;2023-06-14T02:48:40;2.53;;;1.90;;
14100;SDS011;7127;49.372;8.166;2023-06-14T02:51:09;3.10;;;1.87;;
14100;SDS011;7127;49.372;8.166;2023-06-14T02:53:37;2.53;;;1.77;;
14100;SDS011;7127;49.372;8.166;2023-06-14T02:56:05;2.20;;;1.77;;
14100;SDS011;7127;49.372;8.166;2023-06-14T02:58:32;8.80;;;2.10;;
14100;SDS011;7127;49.372;8.166;2023-06-14T03:00:59;2.90;;;1.90;;
14100;SDS011;7127;49.372;8.166;2023-06-14T03:03:28;1.80;;;1.70;;
14100;SDS011;7127;49.372;8.166;2023-06-14T03:05:55;1.97;;;1.80;;
14100;SDS011;7127;49.372;8.166;2023-06-14T03:08:23;2.03;;;1.83;;
14100;SDS011;7127;49.372;8.166;2023-06-14T03:10:52;2.03;;;1.80;;
14100;SDS011;7127;49.372;8.166;2023-06-14T03:13:21;1.97;;;1.87;;
14100;SDS011;7127;49.372;8.166;2023-06-14T03:15:48;2.03;;;1.87;;
14100;SDS011;7127;49.372;8.166;2023-06-14T03:18:16;2.37;;;1.90;;
14100;SDS011;7127;49.372;8.166;2023-06-14T03:20:44;2.20;;;1.90;;
14100;SDS011;7127;49.372;8.166;2023-06-14T03:23:11;1.97;;;1.83;;
14100;SDS011;7127;49.372;8.166;2023-06-14T03:25:40;2.00;;;1.80;;
14100;SDS011;7127;49.372;8.166;2023-06-14T03:28:08;2.27;;;1.90;;
14100;SDS011;7127;49.372;8.166;2023-06-14T03:30:35;2.43;;;1.80;;
14100;SDS011;7127;49.372;8.166;2023-06-14T03:33:02;2.77;;;1.80;;
14100;SDS011;7127;49.372;8.166;2023-06-14T03:35:29;2.17;;;1.97;;
14100;SDS011;7127;49.372;8.166;2023-06-14T03:37:56;2.30;;;2.10;;
14100;SDS011;7127;49.372;8.166;2023-06-14T03:40:23;2.07;;;1.90;;
14100;SDS011;7127;49.372;8.166;2023-06-14T03:42:53;3.63;;;1.90;;
14100;SDS011;7127;49.372;8.166;2023-06-14T03:45:20;1.87;;;1.77;;
14100;SDS011;7127;49.372;8.166;2023-06-14T03:47:47;2.10;;;1.90;;
14100;SDS011;7127;49.372;8.166;2023-06-14T03:50:15;2.07;;;1.87;;
14100;SDS011;7127;49.372;8.166;2023-06-14T03:52:43;2.13;;;1.93;;
14100;SDS011;7127;49.372;8.166;2023-06-14T03:55:10;2.23;;;2.03;;
14100;SDS011;7127;49.372;8.166;2023-06-14T03:57:38;2.00;;;1.90;;
14100;SDS011;7127;49.372;8.166;2023-06-14T04:00:07;1.97;;;1.77;;
14100;SDS011;7127;49.372;8.166;2023-06-14T04:02:36;2.83;;;1.90;;
14100;SDS011;7127;49.372;8.166;2023-06-14T04:05:02;1.93;;;1.83;;
14100;SDS011;7127;49.372;8.166;2023-06-14T04:07:30;2.20;;;2.00;;
14100;SDS011;7127;49.372;8.166;2023-06-14T04:09:57;2.40;;;2.20;;
14100;SDS011;7127;49.372;8.166;2023-06-14T04:12:24;2.00;;;1.90;;
14100;SDS011;7127;49.372;8.166;2023-06-14T04:14:50;2.10;;;1.90;;
14100;SDS011;7127;49.372;8.166;2023-06-14T04:17:19;2.20;;;2.00;;
14100;SDS011;7127;49.372;8.166;2023-06-14T04:19:45;1.67;;;1.57;;
14100;SDS011;7127;49.372;8.166;2023-06-14T04:22:13;2.50;;;1.80;;
14100;SDS011;7127;49.372;8.166;2023-06-14T04:24:39;3.60;;;2.03;;
14100;SDS011;7127;49.372;8.166;2023-06-14T04:27:07;4.10;;;2.10;;
14100;SDS011;7127;49.372;8.166;2023-06-14T04:29:34;1.70;;;1.60;;
14100;SDS011;7127;49.372;8.166;2023-06-14T04:32:01;2.20;;;1.90;;
14100;SDS011;7127;49.372;8.166;2023-06-14T04:34:30;2.03;;;1.80;;
14100;SDS011;7127;49.372;8.166;2023-06-14T04:36:59;2.30;;;2.00;;
14100;SDS011;7127;49.372;8.166;2023-06-14T04:39:26;2.20;;;1.97;;
14100;SDS011;7127;49.372;8.166;2023-06-14T04:41:53;2.87;;;2.00;;
14100;SDS011;7127;49.372;8.166;2023-06-14T04:44:22;2.10;;;1.90;;
14100;SDS011;7127;49.372;8.166;2023-06-14T04:46:54;3.70;;;2.80;;
14100;SDS011;7127;49.372;8.166;2023-06-14T04:49:23;2.40;;;2.10;;
14100;SDS011;7127;49.372;8.166;2023-06-14T04:51:52;3.20;;;2.60;;
14100;SDS011;7127;49.372;8.166;2023-06-14T04:54:22;3.20;;;2.23;;
14100;SDS011;7127;49.372;8.166;2023-06-14T04:56:49;2.20;;;2.00;;
14100;SDS011;7127;49.372;8.166;2023-06-14T04:59:16;7.90;;;2.50;;
14100;SDS011;7127;49.372;8.166;2023-06-14T05:01:43;3.30;;;2.50;;
14100;SDS011;7127;49.372;8.166;2023-06-14T05:04:13;2.40;;;1.93;;
14100;SDS011;7127;49.372;8.166;2023-06-14T05:06:40;2.30;;;2.10;;
14100;SDS011;7127;49.372;8.166;2023-06-14T05:09:11;2.30;;;2.10;;
14100;SDS011;7127;49.372;8.166;2023-06-14T05:11:39;3.10;;;2.30;;
14100;SDS011;7127;49.372;8.166;2023-06-14T05:14:07;4.03;;;2.37;;
14100;SDS011;7127;49.372;8.166;2023-06-14T05:16:34;2.73;;;2.50;;
14100;SDS011;7127;49.372;8.166;2023-06-14T05:19:01;3.27;;;2.30;;
14100;SDS011;7127;49.372;8.166;2023-06-14T05:21:29;2.77;;;2.40;;
14100;SDS011;7127;49.372;8.166;2023-06-14T05:23:57;4.27;;;2.30;;
14100;SDS011;7127;49.372;8.166;2023-06-14T05:26:25;2.97;;;2.30;;
14100;SDS011;7127;49.372;8.166;2023-06-14T05:28:53;2.43;;;2.07;;
14100;SDS011;7127;49.372;8.166;2023-06-14T05:31:21;2.80;;;2.33;;
14100;SDS011;7127;49.372;8.166;2023-06-14T05:33:49;2.53;;;2.30;;
14100;SDS011;7127;49.372;8.166;2023-06-14T05:36:15;6.03;;;2.40;;
14100;SDS011;7127;49.372;8.166;2023-06-14T05:38:43;2.23;;;2.03;;
14100;SDS011;7127;49.372;8.166;2023-06-14T05:41:10;3.80;;;2.50;;
14100;SDS011;7127;49.372;8.166;2023-06-14T05:43:38;4.77;;;2.60;;
14100;SDS011;7127;49.372;8.166;2023-06-14T05:46:05;4.40;;;2.40;;
14100;SDS011;7127;49.372;8.166;2023-06-14T05:48:32;2.70;;;2.33;;
14100;SDS011;7127;49.372;8.166;2023-06-14T05:50:59;2.40;;;2.20;;
14100;SDS011;7127;49.372;8.166;2023-06-14T05:53:25;3.03;;;2.37;;
14100;SDS011;7127;49.372;8.166;2023-06-14T05:55:52;2.53;;;2.30;;
14100;SDS011;7127;49.372;8.166;2023-06-14T05:58:20;4.30;;;1.87;;
14100;SDS011;7127;49.372;8.166;2023-06-14T06:00:48;2.90;;;2.27;;
14100;SDS011;7127;49.372;8.166;2023-06-14T06:03:15;2.83;;;2.27;;
14100;SDS011;7127;49.372;8.166;2023-06-14T06:05:42;3.23;;;2.23;;
14100;SDS011;7127;49.372;8.166;2023-06-14T06:08:09;6.20;;;2.47;;
14100;SDS011;7127;49.372;8.166;2023-06-14T06:10:36;5.90;;;2.50;;
14100;SDS011;7127;49.372;8.166;2023-06-14T06:13:03;4.37;;;2.70;;
14100;SDS011;7127;49.372;8.166;2023-06-14T06:15:29;3.47;;;2.70;;
14100;SDS011;7127;49.372;8.166;2023-06-14T06:17:58;3.73;;;2.50;;
14100;SDS011;7127;49.372;8.166;2023-06-14T06:20:24;2.87;;;2.37;;
14100;SDS011;7127;49.372;8.166;2023-06-14T06:22:53;2.50;;;2.30;;
14100;SDS011;7127;49.372;8.166;2023-06-14T06:25:20;3.23;;;2.20;;
14100;SDS011;7127;49.372;8.166;2023-06-14T06:27:50;2.77;;;2.10;;
14100;SDS011;7127;49.372;8.166;2023-06-14T06:30:17;3.90;;;2.87;;
14100;SDS011;7127;49.372;8.166;2023-06-14T06:32:44;3.20;;;2.23;;
14100;SDS011;7127;49.372;8.166;2023-06-14T06:35:13;2.60;;;2.40;;
14100;SDS011;7127;49.372;8.166;2023-06-14T06:37:41;2.73;;;2.30;;
14100;SDS011;7127;49.372;8.166;2023-06-14T06:40:09;2.50;;;2.30;;
14100;SDS011;7127;49.372;8.166;2023-06-14T06:42:36;3.63;;;2.53;;
14100;SDS011;7127;49.372;8.166;2023-06-14T06:45:03;2.80;;;2.60;;
14100;SDS011;7127;49.372;8.166;2023-06-14T06:47:31;2.50;;;2.30;;
14100;SDS011;7127;49.372;8.166;2023-06-14T06:49:57;2.80;;;2.40;;
14100;SDS011;7127;49.372;8.166;2023-06-14T06:52:26;2.40;;;2.20;;
14100;SDS011;7127;49.372;8.166;2023-06-14T06:54:52;2.80;;;2.20;;
14100;SDS011;7127;49.372;8.166;2023-06-14T06:57:20;3.23;;;2.70;;
14100;SDS011;7127;49.372;8.166;2023-06-14T06:59:48;2.63;;;2.03;;
14100;SDS011;7127;49.372;8.166;2023-06-14T07:02:15;4.07;;;2.63;;
14100;SDS011;7127;49.372;8.166;2023-06-14T07:04:42;4.13;;;2.20;;
14100;SDS011;7127;49.372;8.166;2023-06-14T07:07:09;2.87;;;2.57;;
14100;SDS011;7127;49.372;8.166;2023-06-14T07:09:37;4.17;;;2.40;;
14100;SDS011;7127;49.372;8.166;2023-06-14T07:12:06;2.97;;;2.67;;
14100;SDS011;7127;49.372;8.166;2023-06-14T07:14:33;2.50;;;2.30;;
14100;SDS011;7127;49.372;8.166;2023-06-14T07:17:00;2.80;;;1.90;;
14100;SDS011;7127;49.372;8.166;2023-06-14T07:19:26;2.80;;;2.47;;
14100;SDS011;7127;49.372;8.166;2023-06-14T07:21:53;3.27;;;2.77;;
14100;SDS011;7127;49.372;8.166;2023-06-14T07:24:20;2.60;;;2.20;;
14100;SDS011;7127;49.372;8.166;2023-06-14T07:26:48;3.00;;;2.43;;
14100;SDS011;7127;49.372;8.166;2023-06-14T07:29:15;7.03;;;2.80;;
14100;SDS011;7127;49.372;8.166;2023-06-14T07:31:42;2.87;;;2.57;;
14100;SDS011;7127;49.372;8.166;2023-06-14T07:34:09;4.63;;;2.50;;
14100;SDS011;7127;49.372;8.166;2023-06-14T07:36:36;2.43;;;2.00;;
14100;SDS011;7127;49.372;8.166;2023-06-14T07:39:03;3.33;;;2.13;;
14100;SDS011;7127;49.372;8.166;2023-06-14T07:41:31;3.10;;;1.97;;
14100;SDS011;7127;49.372;8.166;2023-06-14T07:43:59;6.30;;;2.43;;
14100;SDS011;7127;49.372;8.166;2023-06-14T07:46:26;2.47;;;2.23;;
14100;SDS011;7127;49.372;8.166;2023-06-14T07:48:53;5.70;;;2.70;;
14100;SDS011;7127;49.372;8.166;2023-06-14T07:51:19;3.17;;;2.83;;
14100;SDS011;7127;49.372;8.166;2023-06-14T07:53:47;2.80;;;2.30;;
14100;SDS011;7127;49.372;8.166;2023-06-14T07:56:14;2.50;;;2.20;;
14100;SDS011;7127;49.372;8.166;2023-06-14T07:58:41;5.83;;;2.70;;
14100;SDS011;7127;49.372;8.166;2023-06-14T08:01:09;5.50;;;2.80;;
14100;SDS011;7127;49.372;8.166;2023-06-14T08:03:37;2.70;;;2.40;;
14100;SDS011;7127;49.372;8.166;2023-06-14T08:06:04;3.73;;;2.80;;
14100;SDS011;7127;49.372;8.166;2023-06-14T08:08:32;2.80;;;2.47;;
14100;SDS011;7127;49.372;8.166;2023-06-14T08:10:59;2.50;;;2.20;;
14100;SDS011;7127;49.372;8.166;2023-06-14T08:13:26;3.70;;;2.20;;
14100;SDS011;7127;49.372;8.166;2023-06-14T08:15:53;2.33;;;2.13;;
14100;SDS011;7127;49.372;8.166;2023-06-14T08:18:21;2.00;;;1.80;;
14100;SDS011;7127;49.372;8.166;2023-06-14T08:20:48;3.77;;;2.83;;
14100;SDS011;7127;49.372;8.166;2023-06-14T08:23:15;3.67;;;2.57;;
14100;SDS011;7127;49.372;8.166;2023-06-14T08:25:44;3.00;;;2.37;;
14100;SDS011;7127;49.372;8.166;2023-06-14T08:28:10;3.47;;;2.60;;
14100;SDS011;7127;49.372;8.166;2023-06-14T08:30:37;2.57;;;2.20;;
14100;SDS011;7127;49.372;8.166;2023-06-14T08:33:05;2.67;;;2.47;;
14100;SDS011;7127;49.372;8.166;2023-06-14T08:35:33;4.27;;;2.27;;
14100;SDS011;7127;49.372;8.166;2023-06-14T08:38:02;2.50;;;2.30;;
14100;SDS011;7127;49.372;8.166;2023-06-14T08:40:29;4.00;;;3.00;;
14100;SDS011;7127;49.372;8.166;2023-06-14T08:42:57;2.20;;;2.00;;
14100;SDS011;7127;49.372;8.166;2023-06-14T08:45:24;2.47;;;2.27;;
14100;SDS011;7127;49.372;8.166;2023-06-14T08:47:51;2.27;;;2.03;;
14100;SDS011;7127;49.372;8.166;2023-06-14T08:50:22;3.93;;;2.57;;
14100;SDS011;7127;49.372;8.166;2023-06-14T08:52:56;3.93;;;2.47;;
14100;SDS011;7127;49.372;8.166;2023-06-14T08:55:26;4.15;;;2.42;;
14100;SDS011;7127;49.372;8.166;2023-06-14T08:57:54;6.03;;;2.70;;
14100;SDS011;7127;49.372;8.166;2023-06-14T09:00:23;2.92;;;2.17;;
14100;SDS011;7127;49.372;8.166;2023-06-14T09:02:51;4.30;;;2.27;;
14100;SDS011;7127;49.372;8.166;2023-06-14T09:05:22;2.33;;;2.00;;
14100;SDS011;7127;49.372;8.166;2023-06-14T09:07:49;2.50;;;2.30;;
14100;SDS011;7127;49.372;8.166;2023-06-14T09:10:19;3.13;;;2.10;;
14100;SDS011;7127;49.372;8.166;2023-06-14T09:12:47;1.75;;;1.60;;
14100;SDS011;7127;49.372;8.166;2023-06-14T09:15:14;3.45;;;2.00;;
14100;SDS011;7127;49.372;8.166;2023-06-14T09:17:42;1.83;;;1.73;;
14100;SDS011;7127;49.372;8.166;2023-06-14T09:20:09;2.35;;;1.70;;
14100;SDS011;7127;49.372;8.166;2023-06-14T09:22:38;3.83;;;2.20;;
14100;SDS011;7127;49.372;8.166;2023-06-14T09:25:06;2.45;;;1.90;;
14100;SDS011;7127;49.372;8.166;2023-06-14T09:27:35;2.10;;;1.90;;
14100;SDS011;7127;49.372;8.166;2023-06-14T09:30:05;2.03;;;1.67;;
14100;SDS011;7127;49.372;8.166;2023-06-14T09:32:35;2.05;;;1.60;;
14100;SDS011;7127;49.372;8.166;2023-06-14T09:35:03;3.75;;;1.80;;
14100;SDS011;7127;49.372;8.166;2023-06-14T09:37:31;2.45;;;2.00;;
14100;SDS011;7127;49.372;8.166;2023-06-14T09:39:59;2.13;;;1.92;;
14100;SDS011;7127;49.372;8.166;2023-06-14T09:42:26;2.40;;;1.80;;
14100;SDS011;7127;49.372;8.166;2023-06-14T09:44:55;2.17;;;1.92;;
14100;SDS011;7127;49.372;8.166;2023-06-14T09:47:23;1.83;;;1.50;;
14100;SDS011;7127;49.372;8.166;2023-06-14T09:49:50;2.92;;;1.60;;
14100;SDS011;7127;49.372;8.166;2023-06-14T09:52:19;1.85;;;1.63;;
14100;SDS011;7127;49.372;8.166;2023-06-14T09:54:47;1.90;;;1.70;;
14100;SDS011;7127;49.372;8.166;2023-06-14T09:57:15;2.13;;;1.83;;
14100;SDS011;7127;49.372;8.166;2023-06-14T09:59:43;3.05;;;1.60;;
14100;SDS011;7127;49.372;8.166;2023-06-14T10:02:18;2.22;;;1.75;;
14100;SDS011;7127;49.372;8.166;2023-06-14T10:04:55;2.10;;;1.67;;
14100;SDS011;7127;49.372;8.166;2023-06-14T10:07:27;2.08;;;1.55;;
14100;SDS011;7127;49.372;8.166;2023-06-14T10:09:57;4.15;;;1.80;;
14100;SDS011;7127;49.372;8.166;2023-06-14T10:12:25;1.90;;;1.40;;
14100;SDS011;7127;49.372;8.166;2023-06-14T10:14:52;1.50;;;1.40;;
14100;SDS011;7127;49.372;8.166;2023-06-14T10:17:22;2.33;;;1.55;;
14100;SDS011;7127;49.372;8.166;2023-06-14T10:20:03;2.17;;;1.85;;
14100;SDS011;7127;49.372;8.166;2023-06-14T10:22:41;2.78;;;1.60;;
14100;SDS011;7127;49.372;8.166;2023-06-14T10:25:19;1.77;;;1.67;;
14100;SDS011;7127;49.372;8.166;2023-06-14T10:27:53;1.60;;;1.50;;
14100;SDS011;7127;49.372;8.166;2023-06-14T10:30:28;2.40;;;1.90;;
14100;SDS011;7127;49.372;8.166;2023-06-14T10:33:04;1.60;;;1.50;;
14100;SDS011;7127;49.372;8.166;2023-06-14T10:35:32;1.65;;;1.52;;
14100;SDS011;7127;49.372;8.166;2023-06-14T10:38:06;2.72;;;1.73;;
14100;SDS011;7127;49.372;8.166;2023-06-14T10:40:34;1.55;;;1.45;;
14100;SDS011;7127;49.372;8.166;2023-06-14T10:43:06;2.80;;;1.75;;
14100;SDS011;7127;49.372;8.166;2023-06-14T10:48:42;2.13;;;1.90;;
14100;SDS011;7127;49.372;8.166;2023-06-14T10:51:15;1.95;;;1.77;;
14100;SDS011;7127;49.372;8.166;2023-06-14T10:53:45;1.90;;;1.70;;
14100;SDS011;7127;49.372;8.166;2023-06-14T10:56:22;2.80;;;1.75;;
14100;SDS011;7127;49.372;8.166;2023-06-14T10:58:51;2.28;;;1.60;;
14100;SDS011;7127;49.372;8.166;2023-06-14T11:01:18;1.50;;;1.40;;
14100;SDS011;7127;49.372;8.166;2023-06-14T11:03:51;1.58;;;1.27;;
14100;SDS011;7127;49.372;8.166;2023-06-14T11:06:20;1.42;;;1.33;;
14100;SDS011;7127;49.372;8.166;2023-06-14T11:11:51;1.65;;;1.45;;
14100;SDS011;7127;49.372;8.166;2023-06-14T11:14:22;1.55;;;1.40;;
14100;SDS011;7127;49.372;8.166;2023-06-14T11:16:49;1.98;;;1.50;;
14100;SDS011;7127;49.372;8.166;2023-06-14T11:19:18;3.03;;;1.50;;
14100;SDS011;7127;49.372;8.166;2023-06-14T11:21:47;1.83;;;1.70;;
14100;SDS011;7127;49.372;8.166;2023-06-14T11:24:14;1.80;;;1.55;;
14100;SDS011;7127;49.372;8.166;2023-06-14T11:26:40;2.65;;;1.42;;
14100;SDS011;7127;49.372;8.166;2023-06-14T11:29:07;2.47;;;1.83;;
14100;SDS011;7127;49.372;8.166;2023-06-14T11:31:34;3.45;;;1.63;;
14100;SDS011;7127;49.372;8.166;2023-06-14T11:34:01;2.08;;;1.55;;
14100;SDS011;7127;49.372;8.166;2023-06-14T11:36:30;1.45;;;1.30;;
14100;SDS011;7127;49.372;8.166;2023-06-14T11:39:00;2.65;;;1.33;;
14100;SDS011;7127;49.372;8.166;2023-06-14T11:41:36;1.80;;;1.50;;
14100;SDS011;7127;49.372;8.166;2023-06-14T11:44:03;1.20;;;1.10;;
14100;SDS011;7127;49.372;8.166;2023-06-14T11:46:31;2.40;;;1.63;;
14100;SDS011;7127;49.372;8.166;2023-06-14T11:48:58;1.50;;;1.40;;
14100;SDS011;7127;49.372;8.166;2023-06-14T11:51:28;2.83;;;1.30;;
14100;SDS011;7127;49.372;8.166;2023-06-14T11:53:56;1.95;;;1.70;;
14100;SDS011;7127;49.372;8.166;2023-06-14T11:56:23;1.80;;;1.60;;
14100;SDS011;7127;49.372;8.166;2023-06-14T11:58:52;1.60;;;1.50;;
14100;SDS011;7127;49.372;8.166;2023-06-14T12:01:21;2.25;;;1.65;;
14100;SDS011;7127;49.372;8.166;2023-06-14T12:03:48;1.50;;;1.40;;
14100;SDS011;7127;49.372;8.166;2023-06-14T12:06:15;1.70;;;1.60;;
14100;SDS011;7127;49.372;8.166;2023-06-14T12:08:55;1.30;;;1.20;;
14100;SDS011;7127;49.372;8.166;2023-06-14T12:11:22;1.75;;;1.33;;
14100;SDS011;7127;49.372;8.166;2023-06-14T12:13:49;1.65;;;1.40;;
14100;SDS011;7127;49.372;8.166;2023-06-14T12:16:16;1.60;;;1.50;;
14100;SDS011;7127;49.372;8.166;2023-06-14T12:18:42;4.63;;;1.70;;
14100;SDS011;7127;49.372;8.166;2023-06-14T12:21:10;1.52;;;1.42;;
14100;SDS011;7127;49.372;8.166;2023-06-14T12:23:43;1.52;;;1.42;;
14100;SDS011;7127;49.372;8.166;2023-06-14T12:26:14;1.45;;;1.27;;
14100;SDS011;7127;49.372;8.166;2023-06-14T12:28:41;1.40;;;1.30;;
14100;SDS011;7127;49.372;8.166;2023-06-14T12:31:09;1.95;;;1.63;;
14100;SDS011;7127;49.372;8.166;2023-06-14T12:33:37;1.40;;;1.20;;
14100;SDS011;7127;49.372;8.166;2023-06-14T12:36:05;1.30;;;1.17;;
14100;SDS011;7127;49.372;8.166;2023-06-14T12:38:33;2.22;;;2.03;;
14100;SDS011;7127;49.372;8.166;2023-06-14T12:41:01;1.63;;;1.52;;
14100;SDS011;7127;49.372;8.166;2023-06-14T12:43:30;1.50;;;1.40;;
14100;SDS011;7127;49.372;8.166;2023-06-14T12:45:57;1.40;;;1.20;;
14100;SDS011;7127;49.372;8.166;2023-06-14T12:48:24;1.65;;;1.55;;
14100;SDS011;7127;49.372;8.166;2023-06-14T12:50:52;2.40;;;1.70;;
14100;SDS011;7127;49.372;8.166;2023-06-14T12:53:19;2.53;;;1.70;;
14100;SDS011;7127;49.372;8.166;2023-06-14T12:55:46;1.90;;;1.60;;
14100;SDS011;7127;49.372;8.166;2023-06-14T12:58:13;2.25;;;1.70;;
14100;SDS011;7127;49.372;8.166;2023-06-14T13:00:43;1.50;;;1.40;;
14100;SDS011;7127;49.372;8.166;2023-06-14T13:03:10;1.63;;;1.52;;
14100;SDS011;7127;49.372;8.166;2023-06-14T13:05:37;1.40;;;1.30;;
14100;SDS011;7127;49.372;8.166;2023-06-14T13:08:06;1.63;;;1.52;;
14100;SDS011;7127;49.372;8.166;2023-06-14T13:10:34;1.52;;;1.42;;
14100;SDS011;7127;49.372;8.166;2023-06-14T13:13:01;1.58;;;1.48;;
14100;SDS011;7127;49.372;8.166;2023-06-14T13:15:28;1.38;;;1.20;;
14100;SDS011;7127;49.372;8.166;2023-06-14T13:17:56;1.55;;;1.40;;
14100;SDS011;7127;49.372;8.166;2023-06-14T13:20:23;1.58;;;1.35;;
14100;SDS011;7127;49.372;8.166;2023-06-14T13:22:50;2.00;;;1.42;;
14100;SDS011;7127;49.372;8.166;2023-06-14T13:25:17;2.95;;;1.65;;
14100;SDS011;7127;49.372;8.166;2023-06-14T13:27:44;1.48;;;1.38;;
14100;SDS011;7127;49.372;8.166;2023-06-14T13:30:11;3.40;;;1.70;;
14100;SDS011;7127;49.372;8.166;2023-06-14T13:32:38;2.97;;;1.90;;
14100;SDS011;7127;49.372;8.166;2023-06-14T13:35:07;1.65;;;1.38;;
14100;SDS011;7127;49.372;8.166;2023-06-14T13:37:34;1.70;;;1.60;;
14100;SDS011;7127;49.372;8.166;2023-06-14T13:40:01;2.20;;;1.70;;
14100;SDS011;7127;49.372;8.166;2023-06-14T13:42:28;2.22;;;1.75;;
14100;SDS011;7127;49.372;8.166;2023-06-14T13:44:56;3.53;;;1.65;;
14100;SDS011;7127;49.372;8.166;2023-06-14T13:47:24;2.50;;;1.67;;
14100;SDS011;7127;49.372;8.166;2023-06-14T13:49:50;2.25;;;1.75;;
14100;SDS011;7127;49.372;8.166;2023-06-14T13:52:19;1.63;;;1.52;;
14100;SDS011;7127;49.372;8.166;2023-06-14T13:54:45;2.28;;;1.77;;
14100;SDS011;7127;49.372;8.166;2023-06-14T13:57:12;1.90;;;1.80;;
14100;SDS011;7127;49.372;8.166;2023-06-14T13:59:39;2.28;;;1.40;;
14100;SDS011;7127;49.372;8.166;2023-06-14T14:02:06;1.80;;;1.70;;
14100;SDS011;7127;49.372;8.166;2023-06-14T14:04:33;3.00;;;1.65;;
14100;SDS011;7127;49.372;8.166;2023-06-14T14:07:01;1.83;;;1.73;;
14100;SDS011;7127;49.372;8.166;2023-06-14T14:09:29;2.67;;;1.83;;
14100;SDS011;7127;49.372;8.166;2023-06-14T14:11:57;1.67;;;1.55;;
14100;SDS011;7127;49.372;8.166;2023-06-14T14:14:25;1.50;;;1.40;;
14100;SDS011;7127;49.372;8.166;2023-06-14T14:16:53;1.60;;;1.50;;
14100;SDS011;7127;49.372;8.166;2023-06-14T14:19:20;1.60;;;1.50;;
14100;SDS011;7127;49.372;8.166;2023-06-14T14:21:47;1.58;;;1.48;;
14100;SDS011;7127;49.372;8.166;2023-06-14T14:24:13;1.88;;;1.60;;
14100;SDS011;7127;49.372;8.166;2023-06-14T14:26:42;2.17;;;1.92;;
14100;SDS011;7127;49.372;8.166;2023-06-14T14:29:09;1.90;;;1.80;;
14100;SDS011;7127;49.372;8.166;2023-06-14T14:31:37;2.92;;;1.90;;
14100;SDS011;7127;49.372;8.166;2023-06-14T14:34:04;1.92;;;1.77;;
14100;SDS011;7127;49.372;8.166;2023-06-14T14:36:31;2.35;;;1.90;;
14100;SDS011;7127;49.372;8.166;2023-06-14T14:39:01;2.15;;;1.70;;
14100;SDS011;7127;49.372;8.166;2023-06-14T14:41:28;2.25;;;1.90;;
14100;SDS011;7127;49.372;8.166;2023-06-14T14:43:56;1.40;;;1.30;;
14100;SDS011;7127;49.372;8.166;2023-06-14T14:46:24;1.48;;;1.38;;
14100;SDS011;7127;49.372;8.166;2023-06-14T14:48:51;1.90;;;1.70;;
14100;SDS011;7127;49.372;8.166;2023-06-14T14:51:17;2.03;;;1.77;;
14100;SDS011;7127;49.372;8.166;2023-06-14T14:53:44;2.03;;;1.90;;
14100;SDS011;7127;49.372;8.166;2023-06-14T14:56:11;3.08;;;1.80;;
14100;SDS011;7127;49.372;8.166;2023-06-14T14:58:38;1.70;;;1.60;;
14100;SDS011;7127;49.372;8.166;2023-06-14T15:01:06;1.50;;;1.40;;
14100;SDS011;7127;49.372;8.166;2023-06-14T15:03:33;1.75;;;1.40;;
14100;SDS011;7127;49.372;8.166;2023-06-14T15:06:00;1.83;;;1.30;;
14100;SDS011;7127;49.372;8.166;2023-06-14T15:08:26;2.60;;;1.50;;
14100;SDS011;7127;49.372;8.166;2023-06-14T15:10:53;1.58;;;1.40;;